Time;durP1;ratioP1;P1;durP2;ratioP2;P2;SDS_P1;SDS_P2;PMS_P1;PMS_P2;Temp;Humidity;BMP_temperature;BMP_pressure;BME280_temperature;BME280_humidity;BME280_pressure;Samples;Min_cycle;Max_cycle;Signal;HPM_P1;HPM_P2
2022/06/10 00:00:50;;;;;;;16.03;14.70;;;13.30;99.90;;;;;;5047322;28;20459;-67
2022/06/10 00:03:20;;;;;;;16.47;15.17;;;13.20;99.90;;;;;;5055761;28;20835;-68
2022/06/10 00:05:50;;;;;;;16.53;15.33;;;13.00;99.90;;;;;;5049545;28;20544;-69
2022/06/10 00:08:21;;;;;;;16.47;15.30;;;12.90;99.90;;;;;;5063428;28;20497;-68
2022/06/10 00:10:49;;;;;;;16.63;15.43;;;12.80;99.90;;;;;;5077414;28;20459;-67
2022/06/10 00:13:16;;;;;;;17.57;15.90;;;12.70;99.90;;;;;;5063042;28;20878;-68
2022/06/10 00:15:43;;;;;;;17.27;15.73;;;12.70;99.90;;;;;;5067101;28;20574;-67
2022/06/10 00:18:11;;;;;;;18.93;16.50;;;12.60;99.90;;;;;;5063582;28;20459;-67
2022/06/10 00:20:40;;;;;;;17.40;16.00;;;12.60;99.90;;;;;;5076390;28;20824;-68
2022/06/10 00:23:08;;;;;;;20.13;16.40;;;12.60;99.90;;;;;;5064250;28;20462;-67
2022/06/10 00:25:36;;;;;;;16.90;15.37;;;12.60;99.90;;;;;;5076422;28;20515;-67
2022/06/10 00:28:03;;;;;;;18.07;16.30;;;12.60;99.90;;;;;;5067645;28;20666;-69
2022/06/10 00:30:31;;;;;;;18.33;16.37;;;12.50;99.90;;;;;;5075964;28;20467;-67
2022/06/10 00:32:58;;;;;;;18.63;16.00;;;12.50;99.90;;;;;;5065893;28;20949;-67
2022/06/10 00:35:25;;;;;;;17.43;15.83;;;12.50;99.90;;;;;;5077156;28;21064;-68
2022/06/10 00:37:55;;;;;;;24.07;17.00;;;12.70;99.90;;;;;;5068708;28;20484;-67
2022/06/10 00:40:27;;;;;;;18.23;16.10;;;12.80;99.90;;;;;;5074567;28;20525;-67
2022/06/10 00:42:56;;;;;;;15.47;14.10;;;12.80;99.90;;;;;;5067326;28;20818;-69
2022/06/10 00:45:53;;;;;;;16.17;14.97;;;12.80;99.90;;;;;;5072027;28;20459;-67
2022/06/10 00:48:27;;;;;;;15.73;14.40;;;12.70;99.90;;;;;;5061809;28;20460;-69
2022/06/10 00:50:55;;;;;;;17.10;14.80;;;12.70;99.90;;;;;;5077708;28;20462;-68
2022/06/10 00:53:29;;;;;;;14.97;13.97;;;12.70;99.90;;;;;;5072496;28;20485;-69
2022/06/10 00:55:57;;;;;;;15.97;14.37;;;12.70;99.90;;;;;;5076279;28;20477;-67
2022/06/10 00:58:32;;;;;;;15.87;13.90;;;12.70;99.90;;;;;;5068073;28;20462;-68
2022/06/10 01:01:00;;;;;;;28.70;14.13;;;12.70;99.90;;;;;;5072934;28;20466;-68
2022/06/10 01:03:27;;;;;;;19.47;14.00;;;12.80;99.90;;;;;;5076929;28;20474;-67
2022/06/10 01:05:54;;;;;;;17.80;14.57;;;12.70;99.90;;;;;;5078434;28;20458;-67
2022/06/10 01:08:23;;;;;;;15.30;13.87;;;12.60;99.90;;;;;;5057246;28;20487;-69
2022/06/10 01:11:03;;;;;;;15.30;13.70;;;12.70;99.90;;;;;;5052520;28;20459;-70
2022/06/10 01:13:38;;;;;;;14.80;13.70;;;12.70;99.90;;;;;;5041260;28;20797;-67
2022/06/10 01:16:13;;;;;;;15.87;13.93;;;12.70;99.90;;;;;;5045674;28;20494;-67
2022/06/10 01:18:52;;;;;;;15.17;13.80;;;12.60;99.90;;;;;;5052312;28;20458;-67
2022/06/10 01:21:55;;;;;;;15.23;13.67;;;12.70;99.90;;;;;;5056743;28;20468;-67
2022/06/10 01:25:00;;;;;;;16.17;12.80;;;12.70;99.90;;;;;;5061842;28;20466;-68
2022/06/10 01:27:52;;;;;;;14.87;13.20;;;12.80;99.90;;;;;;5051678;28;20468;-67
2022/06/10 01:30:47;;;;;;;16.37;14.27;;;12.70;99.90;;;;;;5058115;28;20458;-67
2022/06/10 01:33:21;;;;;;;17.87;12.30;;;12.70;99.90;;;;;;5055590;28;20463;-69
2022/06/10 01:35:57;;;;;;;14.60;12.97;;;12.70;99.90;;;;;;5057356;28;20514;-68
2022/06/10 01:38:40;;;;;;;13.73;12.53;;;12.60;99.90;;;;;;5047097;28;20946;-69
2022/06/10 01:41:15;;;;;;;13.33;12.10;;;12.70;99.90;;;;;;5060280;28;20477;-68
2022/06/10 01:43:53;;;;;;;18.40;14.07;;;12.60;99.90;;;;;;5050733;28;20557;-68
2022/06/10 01:46:27;;;;;;;14.77;13.47;;;12.60;99.90;;;;;;5056699;28;20463;-67
2022/06/10 01:49:04;;;;;;;18.80;13.90;;;12.50;99.90;;;;;;5055185;28;20946;-69
2022/06/10 01:51:38;;;;;;;15.33;13.63;;;12.30;99.90;;;;;;5055966;28;20466;-69
2022/06/10 01:54:09;;;;;;;14.67;13.53;;;12.30;99.90;;;;;;5054507;28;20490;-68
2022/06/10 01:56:42;;;;;;;14.80;13.60;;;12.20;99.90;;;;;;5050609;28;20705;-69
2022/06/10 01:59:15;;;;;;;15.57;14.07;;;12.00;99.90;;;;;;5048848;28;20973;-67
2022/06/10 02:01:49;;;;;;;15.23;13.73;;;12.00;99.90;;;;;;5057417;28;20464;-67
2022/06/10 02:04:20;;;;;;;18.03;16.20;;;11.90;99.90;;;;;;5044882;28;20494;-67
2022/06/10 02:06:52;;;;;;;17.37;15.70;;;12.00;99.90;;;;;;5051164;28;20492;-68
2022/06/10 02:09:23;;;;;;;16.83;14.20;;;12.00;99.90;;;;;;5054065;28;20494;-69
2022/06/10 02:11:55;;;;;;;15.70;14.07;;;12.00;99.90;;;;;;5056550;28;20833;-68
2022/06/10 02:14:26;;;;;;;20.43;16.27;;;11.90;99.90;;;;;;5054337;28;20812;-68
2022/06/10 02:16:56;;;;;;;17.10;15.53;;;11.70;99.90;;;;;;5050127;28;20511;-67
2022/06/10 02:19:26;;;;;;;18.63;16.00;;;11.50;99.90;;;;;;5057872;28;20459;-68
2022/06/10 02:21:57;;;;;;;17.03;15.47;;;11.40;99.90;;;;;;5051617;28;21048;-69
2022/06/10 02:24:27;;;;;;;17.60;15.83;;;11.30;99.90;;;;;;5044899;28;20908;-67
2022/06/10 02:26:59;;;;;;;17.53;15.87;;;11.20;99.90;;;;;;5049485;28;20461;-69
2022/06/10 02:29:32;;;;;;;18.67;15.97;;;11.10;99.90;;;;;;5044225;28;20465;-69
2022/06/10 02:32:01;;;;;;;20.03;18.00;;;11.10;99.90;;;;;;5055562;28;20846;-68
2022/06/10 02:34:29;;;;;;;18.70;17.10;;;11.00;99.90;;;;;;5056768;28;20458;-68
2022/06/10 02:37:04;;;;;;;19.00;17.30;;;11.10;99.90;;;;;;5053981;28;20861;-67
2022/06/10 02:39:36;;;;;;;18.43;16.83;;;11.00;99.90;;;;;;5042671;28;20600;-67
2022/06/10 02:42:12;;;;;;;18.50;16.80;;;10.90;99.90;;;;;;5046198;28;20963;-69
2022/06/10 02:44:45;;;;;;;20.80;18.67;;;10.90;99.90;;;;;;5057232;28;20794;-67
2022/06/10 02:47:23;;;;;;;19.20;17.63;;;10.90;99.90;;;;;;5046997;28;20464;-67
2022/06/10 02:49:50;;;;;;;19.93;18.00;;;10.90;99.90;;;;;;5056108;28;20469;-67
2022/06/10 02:52:19;;;;;;;20.77;18.90;;;10.80;99.90;;;;;;5055764;28;20737;-67
2022/06/10 02:54:46;;;;;;;19.70;17.90;;;10.80;99.90;;;;;;5051078;28;20468;-66
2022/06/10 02:57:18;;;;;;;20.23;18.20;;;10.70;99.90;;;;;;5046484;28;20465;-67
2022/06/10 03:02:45;;;;;;;18.53;17.00;;;10.70;99.90;;;;;;5056685;28;20929;-67
2022/06/10 03:05:21;;;;;;;20.17;18.47;;;10.70;99.90;;;;;;5055357;28;20473;-67
2022/06/10 03:08:03;;;;;;;19.27;17.33;;;10.60;99.90;;;;;;5060460;28;20503;-67
2022/06/10 03:10:37;;;;;;;20.37;18.40;;;10.70;99.90;;;;;;5047148;28;20462;-67
2022/06/10 03:13:23;;;;;;;19.10;17.60;;;10.70;99.90;;;;;;5044797;28;20481;-69
2022/06/10 03:16:02;;;;;;;19.33;18.00;;;10.70;99.90;;;;;;5054981;28;20491;-68
2022/06/10 03:18:43;;;;;;;19.40;17.80;;;10.80;99.90;;;;;;5051614;28;20486;-67
2022/06/10 03:21:16;;;;;;;19.07;17.50;;;10.70;99.90;;;;;;5051328;28;20466;-67
2022/06/10 03:23:54;;;;;;;19.70;17.93;;;10.70;99.90;;;;;;5047305;28;20502;-68
2022/06/10 03:26:27;;;;;;;18.57;17.03;;;10.90;99.90;;;;;;5055965;28;20549;-67
2022/06/10 03:29:00;;;;;;;19.23;17.57;;;11.10;99.90;;;;;;5055677;28;20490;-67
2022/06/10 03:31:32;;;;;;;20.37;17.47;;;11.30;99.90;;;;;;5049873;28;20515;-68
2022/06/10 03:34:05;;;;;;;18.27;16.80;;;11.40;99.90;;;;;;5050684;28;20464;-67
2022/06/10 03:36:34;;;;;;;16.87;15.40;;;11.60;99.90;;;;;;5035781;28;20492;-68
2022/06/10 03:39:01;;;;;;;17.50;15.90;;;11.70;99.90;;;;;;5048791;28;20517;-67
2022/06/10 03:41:31;;;;;;;17.80;15.87;;;11.90;99.90;;;;;;5045678;28;20460;-67
2022/06/10 03:44:02;;;;;;;18.77;15.30;;;12.00;99.90;;;;;;5058587;28;20824;-67
2022/06/10 03:46:32;;;;;;;18.80;15.80;;;12.20;99.90;;;;;;5053379;28;20524;-68
2022/06/10 03:49:09;;;;;;;28.40;15.50;;;12.30;99.90;;;;;;5056180;28;20470;-67
2022/06/10 03:51:37;;;;;;;17.43;15.40;;;12.40;99.90;;;;;;5048557;28;20830;-67
2022/06/10 03:54:05;;;;;;;16.53;14.93;;;12.50;99.90;;;;;;5048598;28;20838;-69
2022/06/10 03:56:33;;;;;;;14.40;12.90;;;12.60;99.90;;;;;;5057053;28;20490;-69
2022/06/10 03:59:00;;;;;;;14.37;13.23;;;12.80;99.90;;;;;;5057985;28;20965;-67
2022/06/10 04:01:27;;;;;;;14.13;12.83;;;12.90;99.90;;;;;;5038403;28;20472;-68
2022/06/10 04:03:55;;;;;;;15.00;13.70;;;12.90;99.90;;;;;;5022862;28;21090;-67
2022/06/10 04:06:23;;;;;;;14.00;12.70;;;13.10;99.90;;;;;;5021041;28;20452;-69
2022/06/10 04:08:50;;;;;;;14.87;13.37;;;13.10;99.90;;;;;;5019620;28;20519;-68
2022/06/10 04:11:17;;;;;;;16.33;14.60;;;13.20;99.90;;;;;;5020751;28;20468;-68
2022/06/10 04:13:44;;;;;;;14.00;11.33;;;13.30;99.90;;;;;;5021034;28;20460;-67
2022/06/10 04:16:11;;;;;;;12.37;11.20;;;13.40;99.90;;;;;;5021148;28;20507;-67
2022/06/10 04:18:38;;;;;;;22.90;11.93;;;13.50;99.90;;;;;;5022139;28;22388;-68
2022/06/10 04:21:06;;;;;;;11.40;10.40;;;13.60;99.90;;;;;;5022285;28;20847;-68
2022/06/10 04:23:34;;;;;;;12.00;10.90;;;13.70;99.90;;;;;;5022690;28;20471;-67
2022/06/10 04:26:01;;;;;;;17.30;10.53;;;13.70;99.90;;;;;;5021248;28;21042;-67
2022/06/10 04:28:28;;;;;;;10.07;9.27;;;13.80;99.90;;;;;;5021706;28;20464;-66
2022/06/10 04:30:55;;;;;;;15.10;10.03;;;13.80;99.90;;;;;;5021572;28;20541;-69
2022/06/10 04:33:22;;;;;;;11.83;9.97;;;13.90;99.90;;;;;;5018330;28;20583;-68
2022/06/10 04:35:51;;;;;;;10.30;9.30;;;14.00;99.90;;;;;;5018645;28;20497;-67
2022/06/10 04:38:20;;;;;;;12.67;10.40;;;14.00;99.90;;;;;;5017718;28;21102;-68
2022/06/10 04:40:49;;;;;;;11.00;9.10;;;14.20;99.90;;;;;;5017478;28;20847;-67
2022/06/10 04:43:16;;;;;;;13.30;10.20;;;14.20;99.90;;;;;;5019632;28;20605;-67
2022/06/10 04:45:46;;;;;;;10.87;9.77;;;14.30;99.90;;;;;;5017662;28;21107;-67
2022/06/10 04:48:13;;;;;;;11.90;9.60;;;14.40;99.90;;;;;;5020574;28;20456;-69
2022/06/10 04:50:41;;;;;;;10.10;9.30;;;14.40;99.90;;;;;;5021848;28;20531;-67
2022/06/10 04:53:08;;;;;;;14.17;10.43;;;14.50;99.90;;;;;;5022512;28;20460;-68
2022/06/10 04:55:35;;;;;;;12.57;9.80;;;14.50;99.90;;;;;;5023925;28;20495;-69
2022/06/10 04:58:03;;;;;;;12.53;10.43;;;14.50;99.90;;;;;;5027026;28;20907;-67
2022/06/10 05:00:37;;;;;;;12.80;10.90;;;14.60;99.90;;;;;;5027067;28;20463;-66
2022/06/10 05:03:04;;;;;;;11.00;10.03;;;14.70;99.90;;;;;;5026595;28;20722;-66
2022/06/10 05:05:31;;;;;;;12.27;11.10;;;14.80;99.90;;;;;;5026853;28;21032;-67
2022/06/10 05:07:59;;;;;;;13.83;10.17;;;14.90;99.90;;;;;;5031570;28;20497;-68
2022/06/10 05:10:26;;;;;;;15.50;9.80;;;14.90;99.90;;;;;;5044774;28;20455;-67
2022/06/10 05:12:54;;;;;;;11.90;10.07;;;15.00;99.90;;;;;;5045370;28;20459;-68
2022/06/10 05:15:22;;;;;;;18.97;11.90;;;15.00;99.90;;;;;;5043895;28;20478;-67
2022/06/10 05:17:51;;;;;;;11.90;10.90;;;15.20;99.90;;;;;;5043463;28;21237;-67
2022/06/10 05:20:21;;;;;;;15.53;11.03;;;15.30;99.90;;;;;;5045108;28;20462;-68
2022/06/10 05:22:47;;;;;;;13.03;10.50;;;15.30;99.90;;;;;;5044784;28;20679;-67
2022/06/10 05:25:14;;;;;;;13.23;11.43;;;15.30;99.90;;;;;;5042668;28;21437;-68
2022/06/10 05:27:41;;;;;;;11.83;10.73;;;15.30;99.90;;;;;;5044508;28;21045;-69
2022/06/10 05:30:14;;;;;;;12.53;10.70;;;15.40;99.90;;;;;;5043643;28;20469;-67
2022/06/10 05:32:43;;;;;;;11.87;10.80;;;15.50;99.90;;;;;;5045270;28;20466;-67
2022/06/10 05:35:10;;;;;;;13.67;11.50;;;15.60;99.90;;;;;;5045938;28;20462;-68
2022/06/10 05:37:37;;;;;;;13.67;11.37;;;15.60;99.90;;;;;;5047853;28;20505;-69
2022/06/10 05:40:05;;;;;;;12.10;11.00;;;15.70;99.90;;;;;;5072743;28;20464;-67
2022/06/10 05:42:32;;;;;;;14.00;12.03;;;15.90;99.90;;;;;;5061569;28;20470;-66
2022/06/10 05:44:59;;;;;;;13.67;11.10;;;15.90;99.90;;;;;;5042496;28;20545;-67
2022/06/10 05:47:28;;;;;;;19.43;11.23;;;16.10;99.90;;;;;;5019361;28;20467;-67
2022/06/10 05:49:59;;;;;;;12.40;11.57;;;16.20;99.90;;;;;;5036609;28;20458;-65
2022/06/10 05:52:27;;;;;;;13.33;12.10;;;16.30;99.90;;;;;;5035592;28;20478;-67
2022/06/10 05:54:57;;;;;;;13.30;12.40;;;16.30;99.90;;;;;;5035523;28;20466;-67
2022/06/10 05:57:25;;;;;;;13.47;11.70;;;16.50;99.90;;;;;;5038156;28;20512;-67
2022/06/10 05:59:52;;;;;;;14.33;12.90;;;16.60;99.90;;;;;;5037475;28;20471;-66
2022/06/10 06:02:20;;;;;;;13.60;12.40;;;16.80;99.90;;;;;;5047018;28;20853;-68
2022/06/10 06:04:47;;;;;;;13.77;12.80;;;16.90;99.90;;;;;;5066620;28;20458;-68
2022/06/10 06:07:19;;;;;;;14.40;13.30;;;17.10;99.90;;;;;;5046531;28;20536;-66
2022/06/10 06:09:46;;;;;;;14.80;13.63;;;17.20;99.90;;;;;;5036308;28;20911;-66
2022/06/10 06:12:13;;;;;;;14.30;13.00;;;17.30;99.90;;;;;;5033737;28;21001;-67
2022/06/10 06:14:40;;;;;;;15.83;14.13;;;17.40;99.90;;;;;;5035609;28;20472;-68
2022/06/10 06:17:08;;;;;;;15.00;13.13;;;17.60;99.90;;;;;;5037475;28;22072;-67
2022/06/10 06:19:35;;;;;;;15.20;13.70;;;17.60;99.90;;;;;;5038166;28;20471;-67
2022/06/10 06:22:02;;;;;;;14.90;13.87;;;17.70;99.90;;;;;;5045968;28;20954;-68
2022/06/10 06:24:31;;;;;;;14.83;13.17;;;17.70;99.90;;;;;;5045168;28;20465;-66
2022/06/10 06:26:58;;;;;;;14.77;13.67;;;17.70;99.90;;;;;;5034828;28;20486;-68
2022/06/10 06:29:25;;;;;;;14.67;13.50;;;17.80;99.90;;;;;;5033814;28;20505;-67
2022/06/10 06:31:53;;;;;;;16.17;14.70;;;17.80;99.90;;;;;;5033680;28;20465;-68
2022/06/10 06:34:21;;;;;;;15.07;13.87;;;18.10;99.90;;;;;;5035258;28;20463;-68
2022/06/10 06:36:50;;;;;;;17.03;15.30;;;18.10;99.90;;;;;;5032539;28;20854;-68
2022/06/10 06:39:20;;;;;;;15.97;14.87;;;18.30;99.90;;;;;;5033695;28;20466;-66
2022/06/10 06:41:48;;;;;;;17.37;15.83;;;18.50;99.90;;;;;;5033095;28;20461;-67
2022/06/10 06:44:16;;;;;;;16.20;15.00;;;18.50;99.90;;;;;;5033740;28;20464;-66
2022/06/10 06:46:44;;;;;;;15.47;14.30;;;18.90;99.90;;;;;;5032679;28;20466;-67
2022/06/10 06:49:14;;;;;;;15.20;14.20;;;19.30;99.90;;;;;;5034570;28;20563;-68
2022/06/10 06:51:41;;;;;;;16.00;14.83;;;19.50;99.90;;;;;;5033252;28;20998;-68
2022/06/10 06:54:09;;;;;;;19.60;15.63;;;19.80;99.90;;;;;;5033317;28;20554;-68
2022/06/10 06:56:37;;;;;;;16.07;14.67;;;20.20;99.90;;;;;;5034695;28;20602;-67
2022/06/10 06:59:06;;;;;;;16.37;14.90;;;20.50;99.90;;;;;;5034004;28;20473;-67
2022/06/10 07:01:33;;;;;;;16.47;15.00;;;20.50;99.90;;;;;;5035094;28;20466;-67
2022/06/10 07:04:01;;;;;;;15.60;14.50;;;20.90;99.90;;;;;;5035465;28;21445;-68
2022/06/10 07:06:27;;;;;;;15.63;14.53;;;21.10;99.90;;;;;;5032567;28;20468;-67
2022/06/10 07:08:54;;;;;;;16.20;14.90;;;21.20;99.90;;;;;;5021270;28;20495;-68
2022/06/10 07:11:21;;;;;;;15.23;14.43;;;21.30;99.90;;;;;;5014664;28;21209;-68
2022/06/10 07:13:48;;;;;;;15.77;14.57;;;20.90;99.90;;;;;;5015317;28;20461;-67
2022/06/10 07:16:17;;;;;;;16.60;14.60;;;20.90;99.90;;;;;;5015982;28;20483;-67
2022/06/10 07:18:43;;;;;;;16.80;15.30;;;21.10;99.90;;;;;;5012592;28;20471;-69
2022/06/10 07:21:10;;;;;;;16.07;15.07;;;21.00;99.90;;;;;;5015185;28;21016;-68
2022/06/10 07:23:37;;;;;;;16.50;15.10;;;21.20;99.90;;;;;;5015597;28;20463;-68
2022/06/10 07:26:05;;;;;;;19.07;16.67;;;20.60;99.90;;;;;;5015052;28;20574;-67
2022/06/10 07:28:32;;;;;;;17.67;16.03;;;20.60;99.90;;;;;;5015642;28;20464;-68
2022/06/10 07:30:59;;;;;;;18.00;16.33;;;20.60;99.90;;;;;;5013344;28;20456;-67
2022/06/10 07:33:27;;;;;;;16.73;15.20;;;20.80;99.90;;;;;;5013674;28;21091;-68
2022/06/10 07:35:55;;;;;;;21.27;15.20;;;20.90;99.90;;;;;;5014408;28;20459;-68
2022/06/10 07:38:22;;;;;;;17.27;15.87;;;21.20;99.90;;;;;;5014755;28;20842;-68
2022/06/10 07:43:34;;;;;;;16.00;14.60;;;21.20;99.90;;;;;;5015207;28;20468;-68
2022/06/10 07:46:02;;;;;;;15.70;14.70;;;21.50;99.90;;;;;;5014509;28;20468;-68
2022/06/10 07:48:31;;;;;;;15.00;14.30;;;21.60;99.90;;;;;;5014320;28;21098;-69
2022/06/10 07:50:58;;;;;;;16.07;14.67;;;21.70;99.90;;;;;;5015550;28;21014;-68
2022/06/10 07:53:25;;;;;;;15.60;14.70;;;22.10;99.90;;;;;;5014630;28;20462;-67
2022/06/10 07:55:52;;;;;;;15.63;14.60;;;22.30;99.90;;;;;;5014102;28;20540;-70
2022/06/10 07:58:19;;;;;;;16.17;14.87;;;22.50;99.90;;;;;;5015006;28;21123;-69
2022/06/10 08:00:46;;;;;;;16.70;15.40;;;22.60;99.90;;;;;;5013604;28;20458;-68
2022/06/10 08:03:13;;;;;;;16.00;14.90;;;21.90;99.90;;;;;;5014605;28;20474;-68
2022/06/10 08:05:42;;;;;;;15.60;14.70;;;21.70;99.90;;;;;;5013689;28;20489;-68
2022/06/10 08:08:09;;;;;;;16.13;14.80;;;21.40;99.90;;;;;;5014710;28;20525;-69
2022/06/10 08:10:38;;;;;;;16.53;15.17;;;21.00;99.90;;;;;;5012658;28;20462;-68
2022/06/10 08:13:06;;;;;;;15.23;14.20;;;20.70;99.90;;;;;;5013342;28;20474;-68
2022/06/10 08:15:34;;;;;;;15.67;14.60;;;20.50;99.90;;;;;;5039220;28;20495;-67
2022/06/10 08:18:01;;;;;;;16.13;14.40;;;20.40;99.90;;;;;;5037345;28;20491;-68
2022/06/10 08:23:13;;;;;;;15.03;14.00;;;20.30;99.90;;;;;;5009638;28;20464;-68
2022/06/10 08:25:40;;;;;;;15.90;14.30;;;20.40;99.90;;;;;;5014361;28;20467;-68
2022/06/10 08:28:08;;;;;;;15.87;14.77;;;20.50;99.90;;;;;;5021560;28;20466;-68
2022/06/10 08:30:35;;;;;;;15.80;14.40;;;20.60;99.90;;;;;;5039012;28;20472;-69
2022/06/10 08:33:03;;;;;;;15.13;13.90;;;20.70;99.90;;;;;;5046714;28;20473;-69
2022/06/10 08:35:30;;;;;;;15.50;14.20;;;20.80;99.90;;;;;;5041571;28;20467;-68
2022/06/10 08:37:57;;;;;;;14.37;13.57;;;21.00;99.90;;;;;;5031504;28;20498;-68
2022/06/10 08:40:38;;;;;;;15.43;14.10;;;21.10;99.90;;;;;;5015141;28;20952;-68
2022/06/10 08:43:15;;;;;;;15.47;14.30;;;21.30;99.90;;;;;;5012913;28;20469;-68
2022/06/10 08:45:49;;;;;;;15.23;14.23;;;21.40;99.90;;;;;;5012515;28;20928;-69
2022/06/10 08:48:24;;;;;;;15.77;14.50;;;21.20;99.90;;;;;;5015355;28;20464;-70
2022/06/10 08:51:10;;;;;;;15.53;14.50;;;21.30;99.90;;;;;;5015246;28;20455;-70
2022/06/10 08:54:07;;;;;;;15.77;14.47;;;21.50;99.90;;;;;;5015162;28;21679;-69
2022/06/10 08:56:40;;;;;;;15.17;14.00;;;21.70;99.90;;;;;;5005581;28;20461;-69
2022/06/10 08:59:16;;;;;;;15.37;14.27;;;21.80;99.90;;;;;;5014972;28;20460;-69
2022/06/10 09:01:49;;;;;;;16.07;14.80;;;21.80;99.90;;;;;;5013429;28;20520;-69
2022/06/10 09:04:39;;;;;;;15.40;14.30;;;22.00;99.90;;;;;;5014075;28;20465;-69
2022/06/10 09:07:12;;;;;;;15.30;14.20;;;22.30;99.90;;;;;;5013253;28;20468;-69
2022/06/10 09:09:41;;;;;;;16.23;14.73;;;22.50;99.90;;;;;;5014695;28;20491;-69
2022/06/10 09:12:15;;;;;;;15.10;14.03;;;22.70;99.90;;;;;;5011829;28;20471;-69
2022/06/10 09:14:43;;;;;;;17.27;15.10;;;22.40;99.90;;;;;;5013582;28;21270;-69
2022/06/10 09:17:14;;;;;;;14.47;13.70;;;22.30;99.90;;;;;;5013937;28;20492;-68
2022/06/10 09:19:51;;;;;;;14.80;14.00;;;22.50;99.90;;;;;;5012408;28;20738;-68
2022/06/10 09:22:27;;;;;;;15.97;14.30;;;22.20;99.90;;;;;;5013459;28;20472;-69
2022/06/10 09:25:04;;;;;;;15.40;14.10;;;22.30;99.90;;;;;;5013617;28;20542;-69
2022/06/10 09:27:34;;;;;;;14.77;13.90;;;22.30;99.90;;;;;;5013727;28;20543;-68
2022/06/10 09:30:04;;;;;;;15.03;13.93;;;22.40;99.90;;;;;;5013978;28;20472;-68
2022/06/10 09:32:49;;;;;;;15.90;14.20;;;22.40;99.90;;;;;;5014421;28;20948;-70
2022/06/10 09:35:24;;;;;;;21.20;14.57;;;22.60;99.90;;;;;;5013532;28;20463;-68
2022/06/10 09:37:56;;;;;;;15.37;14.37;;;22.80;99.90;;;;;;5014301;28;20860;-68
2022/06/10 09:40:37;;;;;;;14.60;13.80;;;22.80;99.90;;;;;;5015799;28;21053;-68
2022/06/10 09:43:43;;;;;;;15.40;14.30;;;23.00;99.90;;;;;;5019264;28;20540;-68
2022/06/10 09:46:27;;;;;;;15.57;14.67;;;23.00;99.90;;;;;;5011447;28;20942;-68
2022/06/10 09:49:11;;;;;;;15.60;14.70;;;23.30;99.90;;;;;;5017198;28;20555;-70
2022/06/10 09:51:45;;;;;;;16.30;15.37;;;23.60;99.90;;;;;;5019579;28;21096;-68
2022/06/10 09:54:31;;;;;;;16.07;15.00;;;23.60;99.90;;;;;;5016241;28;20463;-69
2022/06/10 09:57:21;;;;;;;16.50;15.40;;;23.70;99.90;;;;;;5016987;28;20693;-67
2022/06/10 09:59:55;;;;;;;16.10;15.00;;;24.10;99.90;;;;;;5012343;28;20463;-67
2022/06/10 10:02:36;;;;;;;16.20;15.40;;;24.70;99.90;;;;;;5019885;28;20470;-69
2022/06/10 10:05:13;;;;;;;16.40;15.40;;;24.90;99.90;;;;;;5016633;28;20479;-68
2022/06/10 10:07:49;;;;;;;16.27;15.27;;;25.00;99.90;;;;;;5018588;28;20579;-67
2022/06/10 10:10:23;;;;;;;16.53;15.20;;;25.20;99.90;;;;;;5016662;28;20468;-69
2022/06/10 10:13:01;;;;;;;17.83;16.63;;;25.70;99.90;;;;;;5016377;28;20471;-67
2022/06/10 10:15:42;;;;;;;17.10;15.90;;;26.10;99.90;;;;;;5015529;28;21045;-68
2022/06/10 10:18:26;;;;;;;17.30;16.00;;;26.10;99.90;;;;;;5037526;28;20487;-67
2022/06/10 10:21:11;;;;;;;16.27;15.37;;;25.80;99.90;;;;;;5047737;28;20464;-67
2022/06/10 10:23:42;;;;;;;16.63;15.40;;;25.50;99.90;;;;;;5034387;28;20502;-67
2022/06/10 10:26:18;;;;;;;16.27;15.17;;;26.20;99.90;;;;;;5018444;28;20500;-67
2022/06/10 10:28:47;;;;;;;17.00;15.80;;;26.30;99.90;;;;;;5017526;28;20464;-67
2022/06/10 10:31:20;;;;;;;17.90;16.00;;;26.20;99.90;;;;;;5009368;28;21162;-66
2022/06/10 10:33:47;;;;;;;16.93;15.50;;;26.40;99.90;;;;;;5017104;28;20466;-67
2022/06/10 10:36:22;;;;;;;17.60;15.90;;;26.80;99.90;;;;;;5017833;28;20467;-67
2022/06/10 10:38:50;;;;;;;16.60;15.70;;;26.90;99.30;;;;;;5018536;28;20967;-68
2022/06/10 10:41:35;;;;;;;17.07;15.97;;;27.00;99.90;;;;;;5018574;28;20993;-67
2022/06/10 10:44:08;;;;;;;17.17;15.50;;;27.40;99.10;;;;;;5017352;28;20963;-71
2022/06/10 10:46:42;;;;;;;17.20;15.73;;;27.40;98.70;;;;;;5017383;28;20468;-69
2022/06/10 10:49:27;;;;;;;16.87;15.53;;;27.50;98.10;;;;;;5017620;28;20977;-67
2022/06/10 10:51:55;;;;;;;17.30;16.20;;;27.60;97.80;;;;;;5016730;28;20860;-67
2022/06/10 10:54:27;;;;;;;16.57;15.47;;;27.50;97.90;;;;;;5017752;28;20543;-68
2022/06/10 10:56:55;;;;;;;16.47;15.47;;;28.00;98.70;;;;;;5017419;28;20475;-69
2022/06/10 10:59:33;;;;;;;18.03;16.00;;;28.70;96.80;;;;;;5017597;28;20497;-68
2022/06/10 11:02:02;;;;;;;16.53;15.20;;;28.40;96.90;;;;;;5017924;28;20475;-68
2022/06/10 11:04:32;;;;;;;15.70;14.50;;;28.70;96.60;;;;;;5017442;28;20833;-67
2022/06/10 11:07:03;;;;;;;17.23;16.00;;;28.40;95.90;;;;;;5017016;28;20483;-66
2022/06/10 11:09:30;;;;;;;16.53;15.33;;;28.20;94.90;;;;;;5015475;28;20515;-70
2022/06/10 11:12:02;;;;;;;16.60;15.10;;;28.10;95.30;;;;;;5015849;28;20472;-65
2022/06/10 11:14:32;;;;;;;16.43;15.17;;;28.30;96.20;;;;;;5015508;28;20922;-67
2022/06/10 11:17:15;;;;;;;16.23;15.03;;;28.50;95.00;;;;;;5012295;28;20506;-66
2022/06/10 11:19:47;;;;;;;16.07;14.67;;;27.00;96.70;;;;;;5015138;28;20464;-66
2022/06/10 11:22:27;;;;;;;17.27;15.87;;;28.10;94.80;;;;;;5001583;28;20981;-67
2022/06/10 11:24:57;;;;;;;18.03;16.37;;;28.70;95.30;;;;;;5012753;28;20471;-67
2022/06/10 11:27:30;;;;;;;16.90;15.57;;;29.30;94.60;;;;;;5016328;28;20495;-68
2022/06/10 11:30:18;;;;;;;17.47;16.17;;;29.60;93.20;;;;;;5011297;28;22328;-66
2022/06/10 11:32:58;;;;;;;17.27;15.97;;;29.30;93.60;;;;;;5010119;28;20465;-69
2022/06/10 11:35:28;;;;;;;17.67;16.40;;;27.90;95.30;;;;;;5008580;28;21260;-69
2022/06/10 11:37:58;;;;;;;17.57;16.27;;;29.00;93.30;;;;;;5009459;28;20504;-67
2022/06/10 11:40:28;;;;;;;16.60;15.60;;;29.10;92.80;;;;;;5010244;28;20468;-68
2022/06/10 11:43:02;;;;;;;15.90;15.00;;;29.30;93.30;;;;;;5010591;28;20472;-67
2022/06/10 11:45:33;;;;;;;16.23;15.07;;;29.00;94.50;;;;;;5009606;28;20460;-69
2022/06/10 11:48:07;;;;;;;17.20;16.00;;;29.60;92.60;;;;;;5010274;28;20908;-66
2022/06/10 11:50:39;;;;;;;17.23;16.00;;;29.80;92.40;;;;;;5009942;28;20511;-67
2022/06/10 11:53:19;;;;;;;17.30;16.10;;;30.10;91.90;;;;;;5008843;28;21360;-66
2022/06/10 11:55:49;;;;;;;16.63;15.40;;;30.30;91.10;;;;;;5008814;28;20963;-65
2022/06/10 12:01:18;;;;;;;16.50;15.37;;;30.50;91.00;;;;;;5009179;28;20908;-68
2022/06/10 12:03:53;;;;;;;17.20;15.70;;;30.70;89.00;;;;;;5008989;28;20468;-67
2022/06/10 12:06:23;;;;;;;16.07;15.00;;;30.00;89.00;;;;;;5010178;28;20475;-67
2022/06/10 12:08:55;;;;;;;17.23;16.07;;;29.70;90.00;;;;;;5010540;28;20857;-67
2022/06/10 12:11:29;;;;;;;16.03;15.03;;;29.90;90.40;;;;;;5010051;28;20461;-69
2022/06/10 12:14:03;;;;;;;16.30;15.30;;;30.50;89.80;;;;;;5009315;28;20460;-68
2022/06/10 12:16:31;;;;;;;15.00;14.20;;;30.30;87.90;;;;;;5025651;28;20484;-68
2022/06/10 12:19:06;;;;;;;15.40;14.20;;;29.30;88.50;;;;;;5034477;28;21109;-67
2022/06/10 12:21:33;;;;;;;15.50;14.07;;;29.30;88.60;;;;;;5045387;28;20464;-66
2022/06/10 12:24:00;;;;;;;16.33;15.10;;;29.70;90.10;;;;;;5013950;28;20468;-67
2022/06/10 12:26:37;;;;;;;16.80;15.60;;;31.10;86.30;;;;;;5010346;28;20468;-67
2022/06/10 12:29:11;;;;;;;15.33;14.30;;;30.50;87.10;;;;;;5010143;28;20474;-66
2022/06/10 12:31:45;;;;;;;16.77;15.67;;;30.00;88.20;;;;;;5008530;28;20478;-68
2022/06/10 12:34:23;;;;;;;16.37;15.27;;;30.20;87.80;;;;;;5008168;28;20842;-68
2022/06/10 12:36:54;;;;;;;15.90;14.83;;;30.30;84.50;;;;;;5009434;28;21013;-66
2022/06/10 12:39:26;;;;;;;16.07;14.87;;;29.10;88.50;;;;;;5007882;28;20484;-66
2022/06/10 12:41:59;;;;;;;16.07;14.90;;;28.30;91.30;;;;;;5008300;28;20476;-67
2022/06/10 12:44:29;;;;;;;16.10;14.73;;;27.50;92.70;;;;;;5008024;28;20531;-67
2022/06/10 12:47:00;;;;;;;14.90;14.00;;;27.90;91.60;;;;;;5008256;28;20948;-67
2022/06/10 12:49:36;;;;;;;16.57;15.37;;;27.90;92.30;;;;;;5021761;28;20490;-68
2022/06/10 12:52:22;;;;;;;15.50;14.60;;;28.10;91.70;;;;;;5039409;28;20463;-67
2022/06/10 12:54:56;;;;;;;14.83;13.70;;;28.10;91.30;;;;;;5005446;28;20482;-68
2022/06/10 12:57:37;;;;;;;15.93;14.77;;;28.10;92.40;;;;;;5008304;28;20967;-67
2022/06/10 13:00:39;;;;;;;16.33;15.23;;;29.10;90.60;;;;;;5006926;28;21028;-66
2022/06/10 13:03:32;;;;;;;15.83;14.90;;;28.90;89.10;;;;;;5008334;28;20927;-67